sensor_id;sensor_type;location;lat;lon;timestamp;P1;durP1;ratioP1;P2;durP2;ratioP2
14754;SDS011;7469;50.906;6.952;2023-03-24T00:01:17;2.53;;;1.17;;
14754;SDS011;7469;50.906;6.952;2023-03-24T00:03:45;1.90;;;1.07;;
14754;SDS011;7469;50.906;6.952;2023-03-24T00:06:14;1.23;;;1.00;;
14754;SDS011;7469;50.906;6.952;2023-03-24T00:08:44;1.10;;;1.00;;
14754;SDS011;7469;50.906;6.952;2023-03-24T00:11:13;1.30;;;1.10;;
14754;SDS011;7469;50.906;6.952;2023-03-24T00:13:43;0.90;;;0.90;;
14754;SDS011;7469;50.906;6.952;2023-03-24T00:16:17;1.73;;;0.97;;
14754;SDS011;7469;50.906;6.952;2023-03-24T00:18:47;6.77;;;1.10;;
14754;SDS011;7469;50.906;6.952;2023-03-24T00:21:19;1.00;;;1.00;;
14754;SDS011;7469;50.906;6.952;2023-03-24T00:23:50;1.50;;;1.00;;
14754;SDS011;7469;50.906;6.952;2023-03-24T00:26:19;1.80;;;1.30;;
14754;SDS011;7469;50.906;6.952;2023-03-24T00:28:50;2.13;;;1.00;;
14754;SDS011;7469;50.906;6.952;2023-03-24T00:31:20;2.90;;;1.17;;
14754;SDS011;7469;50.906;6.952;2023-03-24T00:33:49;1.43;;;1.20;;
14754;SDS011;7469;50.906;6.952;2023-03-24T00:36:19;2.47;;;1.20;;
14754;SDS011;7469;50.906;6.952;2023-03-24T00:38:49;1.50;;;1.40;;
14754;SDS011;7469;50.906;6.952;2023-03-24T00:41:18;1.97;;;1.57;;
14754;SDS011;7469;50.906;6.952;2023-03-24T00:43:46;1.20;;;1.10;;
14754;SDS011;7469;50.906;6.952;2023-03-24T00:46:23;2.73;;;1.40;;
14754;SDS011;7469;50.906;6.952;2023-03-24T00:48:55;1.80;;;1.40;;
14754;SDS011;7469;50.906;6.952;2023-03-24T00:51:28;1.40;;;1.30;;
14754;SDS011;7469;50.906;6.952;2023-03-24T00:53:58;2.07;;;1.50;;
14754;SDS011;7469;50.906;6.952;2023-03-24T00:56:28;1.50;;;1.40;;
14754;SDS011;7469;50.906;6.952;2023-03-24T00:58:57;2.13;;;1.33;;
14754;SDS011;7469;50.906;6.952;2023-03-24T01:01:30;1.77;;;1.30;;
14754;SDS011;7469;50.906;6.952;2023-03-24T01:04:01;3.70;;;1.40;;
14754;SDS011;7469;50.906;6.952;2023-03-24T01:06:29;2.10;;;1.57;;
14754;SDS011;7469;50.906;6.952;2023-03-24T01:08:57;2.20;;;1.80;;
14754;SDS011;7469;50.906;6.952;2023-03-24T01:11:29;2.60;;;1.97;;
14754;SDS011;7469;50.906;6.952;2023-03-24T01:14:03;1.80;;;1.47;;
14754;SDS011;7469;50.906;6.952;2023-03-24T01:16:32;3.43;;;1.90;;
14754;SDS011;7469;50.906;6.952;2023-03-24T01:19:01;1.60;;;1.50;;
14754;SDS011;7469;50.906;6.952;2023-03-24T01:21:29;2.57;;;1.43;;
14754;SDS011;7469;50.906;6.952;2023-03-24T01:24:00;2.77;;;1.23;;
14754;SDS011;7469;50.906;6.952;2023-03-24T01:26:28;2.23;;;1.63;;
14754;SDS011;7469;50.906;6.952;2023-03-24T01:28:57;1.90;;;1.13;;
14754;SDS011;7469;50.906;6.952;2023-03-24T01:31:25;1.73;;;1.20;;
14754;SDS011;7469;50.906;6.952;2023-03-24T01:33:54;1.97;;;1.30;;
14754;SDS011;7469;50.906;6.952;2023-03-24T01:36:22;2.37;;;1.23;;
14754;SDS011;7469;50.906;6.952;2023-03-24T01:38:50;1.87;;;1.30;;
14754;SDS011;7469;50.906;6.952;2023-03-24T01:41:19;2.20;;;1.20;;
14754;SDS011;7469;50.906;6.952;2023-03-24T01:43:47;0.83;;;0.83;;
14754;SDS011;7469;50.906;6.952;2023-03-24T01:46:16;3.40;;;1.40;;
14754;SDS011;7469;50.906;6.952;2023-03-24T01:48:48;1.30;;;1.20;;
14754;SDS011;7469;50.906;6.952;2023-03-24T01:51:20;1.57;;;1.33;;
14754;SDS011;7469;50.906;6.952;2023-03-24T01:53:52;1.43;;;1.30;;
14754;SDS011;7469;50.906;6.952;2023-03-24T01:56:22;1.40;;;1.30;;
14754;SDS011;7469;50.906;6.952;2023-03-24T01:58:52;2.23;;;1.50;;
14754;SDS011;7469;50.906;6.952;2023-03-24T02:01:23;1.50;;;1.40;;
14754;SDS011;7469;50.906;6.952;2023-03-24T02:03:55;1.67;;;1.57;;
14754;SDS011;7469;50.906;6.952;2023-03-24T02:06:25;2.90;;;1.40;;
14754;SDS011;7469;50.906;6.952;2023-03-24T02:08:54;1.80;;;1.47;;
14754;SDS011;7469;50.906;6.952;2023-03-24T02:11:26;2.87;;;1.67;;
14754;SDS011;7469;50.906;6.952;2023-03-24T02:13:56;2.03;;;1.67;;
14754;SDS011;7469;50.906;6.952;2023-03-24T02:16:28;1.90;;;1.70;;
14754;SDS011;7469;50.906;6.952;2023-03-24T02:19:18;2.87;;;1.97;;
14754;SDS011;7469;50.906;6.952;2023-03-24T02:25:31;2.10;;;1.77;;
14754;SDS011;7469;50.906;6.952;2023-03-24T02:28:13;1.80;;;1.70;;
14754;SDS011;7469;50.906;6.952;2023-03-24T02:37:14;2.27;;;1.63;;
14754;SDS011;7469;50.906;6.952;2023-03-24T02:40:06;2.00;;;1.70;;
14754;SDS011;7469;50.906;6.952;2023-03-24T02:42:48;2.17;;;1.70;;
14754;SDS011;7469;50.906;6.952;2023-03-24T02:45:26;1.63;;;1.53;;
14754;SDS011;7469;50.906;6.952;2023-03-24T02:48:05;2.30;;;1.80;;
14754;SDS011;7469;50.906;6.952;2023-03-24T02:50:40;1.70;;;1.60;;
14754;SDS011;7469;50.906;6.952;2023-03-24T02:53:17;3.07;;;1.80;;
14754;SDS011;7469;50.906;6.952;2023-03-24T02:55:54;1.60;;;1.50;;
14754;SDS011;7469;50.906;6.952;2023-03-24T02:58:27;2.77;;;1.60;;
14754;SDS011;7469;50.906;6.952;2023-03-24T03:01:03;2.00;;;1.53;;
14754;SDS011;7469;50.906;6.952;2023-03-24T03:03:35;1.83;;;1.60;;
14754;SDS011;7469;50.906;6.952;2023-03-24T03:06:08;2.00;;;1.37;;
14754;SDS011;7469;50.906;6.952;2023-03-24T03:08:41;1.80;;;1.60;;
14754;SDS011;7469;50.906;6.952;2023-03-24T03:11:14;2.17;;;1.67;;
14754;SDS011;7469;50.906;6.952;2023-03-24T03:13:46;2.00;;;1.80;;
14754;SDS011;7469;50.906;6.952;2023-03-24T03:16:18;3.57;;;1.43;;
14754;SDS011;7469;50.906;6.952;2023-03-24T03:18:52;1.93;;;1.83;;
14754;SDS011;7469;50.906;6.952;2023-03-24T03:21:24;2.63;;;2.00;;
14754;SDS011;7469;50.906;6.952;2023-03-24T03:23:57;1.40;;;1.30;;
14754;SDS011;7469;50.906;6.952;2023-03-24T03:26:30;1.23;;;1.13;;
14754;SDS011;7469;50.906;6.952;2023-03-24T03:28:59;2.83;;;1.70;;
14754;SDS011;7469;50.906;6.952;2023-03-24T03:31:33;1.70;;;1.60;;
14754;SDS011;7469;50.906;6.952;2023-03-24T03:34:08;1.63;;;1.53;;
14754;SDS011;7469;50.906;6.952;2023-03-24T03:36:40;1.53;;;1.43;;
14754;SDS011;7469;50.906;6.952;2023-03-24T03:39:15;1.60;;;1.50;;
14754;SDS011;7469;50.906;6.952;2023-03-24T03:41:50;2.07;;;1.87;;
14754;SDS011;7469;50.906;6.952;2023-03-24T03:44:19;2.00;;;1.80;;
14754;SDS011;7469;50.906;6.952;2023-03-24T03:46:47;3.70;;;1.90;;
14754;SDS011;7469;50.906;6.952;2023-03-24T03:49:15;2.00;;;1.70;;
14754;SDS011;7469;50.906;6.952;2023-03-24T03:51:43;1.90;;;1.70;;
14754;SDS011;7469;50.906;6.952;2023-03-24T03:54:12;2.20;;;1.60;;
14754;SDS011;7469;50.906;6.952;2023-03-24T03:56:42;2.40;;;1.93;;
14754;SDS011;7469;50.906;6.952;2023-03-24T03:59:23;1.63;;;1.53;;
14754;SDS011;7469;50.906;6.952;2023-03-24T04:01:52;2.17;;;1.80;;
14754;SDS011;7469;50.906;6.952;2023-03-24T04:04:29;1.37;;;1.23;;
14754;SDS011;7469;50.906;6.952;2023-03-24T04:07:34;1.67;;;1.57;;
14754;SDS011;7469;50.906;6.952;2023-03-24T04:10:08;1.87;;;1.77;;
14754;SDS011;7469;50.906;6.952;2023-03-24T04:12:48;1.90;;;1.50;;
14754;SDS011;7469;50.906;6.952;2023-03-24T04:15:35;2.67;;;1.30;;
14754;SDS011;7469;50.906;6.952;2023-03-24T04:18:13;1.83;;;1.57;;
14754;SDS011;7469;50.906;6.952;2023-03-24T04:21:14;1.53;;;1.43;;
14754;SDS011;7469;50.906;6.952;2023-03-24T04:24:03;1.40;;;1.30;;
14754;SDS011;7469;50.906;6.952;2023-03-24T04:26:43;2.90;;;1.50;;
14754;SDS011;7469;50.906;6.952;2023-03-24T04:29:21;1.30;;;1.20;;
14754;SDS011;7469;50.906;6.952;2023-03-24T04:31:58;1.77;;;1.40;;
14754;SDS011;7469;50.906;6.952;2023-03-24T04:34:31;4.43;;;1.40;;
14754;SDS011;7469;50.906;6.952;2023-03-24T04:37:03;2.83;;;1.57;;
14754;SDS011;7469;50.906;6.952;2023-03-24T04:39:34;1.27;;;1.23;;
14754;SDS011;7469;50.906;6.952;2023-03-24T04:42:05;1.50;;;1.40;;
14754;SDS011;7469;50.906;6.952;2023-03-24T04:44:36;1.37;;;1.27;;
14754;SDS011;7469;50.906;6.952;2023-03-24T04:47:08;1.30;;;1.20;;
14754;SDS011;7469;50.906;6.952;2023-03-24T04:49:38;2.60;;;1.40;;
14754;SDS011;7469;50.906;6.952;2023-03-24T04:52:06;1.23;;;1.13;;
14754;SDS011;7469;50.906;6.952;2023-03-24T04:54:34;2.20;;;1.40;;
14754;SDS011;7469;50.906;6.952;2023-03-24T04:57:02;1.27;;;1.10;;
14754;SDS011;7469;50.906;6.952;2023-03-24T04:59:31;1.73;;;1.30;;
14754;SDS011;7469;50.906;6.952;2023-03-24T05:02:00;1.43;;;0.93;;
14754;SDS011;7469;50.906;6.952;2023-03-24T05:04:29;2.40;;;1.00;;
14754;SDS011;7469;50.906;6.952;2023-03-24T05:06:57;2.40;;;1.03;;
14754;SDS011;7469;50.906;6.952;2023-03-24T05:09:26;1.00;;;1.00;;
14754;SDS011;7469;50.906;6.952;2023-03-24T05:11:56;1.67;;;0.90;;
14754;SDS011;7469;50.906;6.952;2023-03-24T05:14:27;1.80;;;0.83;;
14754;SDS011;7469;50.906;6.952;2023-03-24T05:16:55;1.83;;;1.00;;
14754;SDS011;7469;50.906;6.952;2023-03-24T05:19:23;2.43;;;0.90;;
14754;SDS011;7469;50.906;6.952;2023-03-24T05:21:52;1.80;;;1.27;;
14754;SDS011;7469;50.906;6.952;2023-03-24T05:24:21;1.43;;;1.20;;
14754;SDS011;7469;50.906;6.952;2023-03-24T05:26:49;1.13;;;0.80;;
14754;SDS011;7469;50.906;6.952;2023-03-24T05:29:17;1.10;;;1.00;;
14754;SDS011;7469;50.906;6.952;2023-03-24T05:31:45;3.40;;;1.50;;
14754;SDS011;7469;50.906;6.952;2023-03-24T05:34:12;2.93;;;1.10;;
14754;SDS011;7469;50.906;6.952;2023-03-24T05:36:41;1.40;;;1.30;;
14754;SDS011;7469;50.906;6.952;2023-03-24T05:39:10;3.23;;;1.17;;
14754;SDS011;7469;50.906;6.952;2023-03-24T05:41:38;1.97;;;1.30;;
14754;SDS011;7469;50.906;6.952;2023-03-24T05:44:06;4.13;;;1.43;;
14754;SDS011;7469;50.906;6.952;2023-03-24T05:46:34;1.27;;;1.17;;
14754;SDS011;7469;50.906;6.952;2023-03-24T05:49:03;1.13;;;1.00;;
14754;SDS011;7469;50.906;6.952;2023-03-24T05:51:31;3.67;;;1.27;;
14754;SDS011;7469;50.906;6.952;2023-03-24T05:53:59;4.80;;;1.53;;
14754;SDS011;7469;50.906;6.952;2023-03-24T05:56:28;3.70;;;1.40;;
14754;SDS011;7469;50.906;6.952;2023-03-24T05:58:57;3.90;;;1.33;;
14754;SDS011;7469;50.906;6.952;2023-03-24T06:01:26;2.47;;;1.60;;
14754;SDS011;7469;50.906;6.952;2023-03-24T06:03:55;1.33;;;1.20;;
14754;SDS011;7469;50.906;6.952;2023-03-24T06:06:23;4.50;;;1.20;;
14754;SDS011;7469;50.906;6.952;2023-03-24T06:08:53;2.40;;;1.27;;
14754;SDS011;7469;50.906;6.952;2023-03-24T06:11:23;2.20;;;1.00;;
14754;SDS011;7469;50.906;6.952;2023-03-24T06:13:53;3.80;;;1.00;;
14754;SDS011;7469;50.906;6.952;2023-03-24T06:16:24;2.07;;;0.93;;
14754;SDS011;7469;50.906;6.952;2023-03-24T06:18:52;3.67;;;1.10;;
14754;SDS011;7469;50.906;6.952;2023-03-24T06:21:20;2.67;;;0.97;;
14754;SDS011;7469;50.906;6.952;2023-03-24T06:24:00;7.47;;;1.60;;
14754;SDS011;7469;50.906;6.952;2023-03-24T06:26:28;4.10;;;1.10;;
14754;SDS011;7469;50.906;6.952;2023-03-24T06:28:58;8.40;;;1.30;;
14754;SDS011;7469;50.906;6.952;2023-03-24T06:31:27;4.43;;;1.40;;
14754;SDS011;7469;50.906;6.952;2023-03-24T06:33:56;3.43;;;1.37;;
14754;SDS011;7469;50.906;6.952;2023-03-24T06:36:24;3.40;;;1.30;;
14754;SDS011;7469;50.906;6.952;2023-03-24T06:38:52;3.70;;;1.17;;
14754;SDS011;7469;50.906;6.952;2023-03-24T06:41:19;2.63;;;1.47;;
14754;SDS011;7469;50.906;6.952;2023-03-24T06:43:48;2.90;;;1.10;;
14754;SDS011;7469;50.906;6.952;2023-03-24T06:46:17;2.50;;;1.40;;
14754;SDS011;7469;50.906;6.952;2023-03-24T06:48:45;7.83;;;1.97;;
14754;SDS011;7469;50.906;6.952;2023-03-24T06:51:14;6.37;;;1.67;;
14754;SDS011;7469;50.906;6.952;2023-03-24T06:53:42;7.70;;;1.20;;
14754;SDS011;7469;50.906;6.952;2023-03-24T06:56:11;3.50;;;1.37;;
14754;SDS011;7469;50.906;6.952;2023-03-24T06:58:42;4.57;;;1.30;;
14754;SDS011;7469;50.906;6.952;2023-03-24T07:01:10;4.37;;;1.57;;
14754;SDS011;7469;50.906;6.952;2023-03-24T07:03:41;3.90;;;1.30;;
14754;SDS011;7469;50.906;6.952;2023-03-24T07:06:10;6.50;;;1.80;;
14754;SDS011;7469;50.906;6.952;2023-03-24T07:08:38;3.83;;;1.50;;
14754;SDS011;7469;50.906;6.952;2023-03-24T07:11:06;3.90;;;1.60;;
14754;SDS011;7469;50.906;6.952;2023-03-24T07:13:35;6.97;;;1.47;;
14754;SDS011;7469;50.906;6.952;2023-03-24T07:16:04;5.20;;;1.80;;
14754;SDS011;7469;50.906;6.952;2023-03-24T07:18:33;4.67;;;1.83;;
14754;SDS011;7469;50.906;6.952;2023-03-24T07:21:02;2.80;;;1.60;;
14754;SDS011;7469;50.906;6.952;2023-03-24T07:23:31;3.43;;;1.90;;
14754;SDS011;7469;50.906;6.952;2023-03-24T07:25:59;6.00;;;1.80;;
14754;SDS011;7469;50.906;6.952;2023-03-24T07:28:27;4.40;;;1.87;;
14754;SDS011;7469;50.906;6.952;2023-03-24T07:30:55;6.47;;;1.90;;
14754;SDS011;7469;50.906;6.952;2023-03-24T07:33:24;6.67;;;2.50;;
14754;SDS011;7469;50.906;6.952;2023-03-24T07:35:53;5.33;;;2.13;;
14754;SDS011;7469;50.906;6.952;2023-03-24T07:38:24;3.67;;;1.80;;
14754;SDS011;7469;50.906;6.952;2023-03-24T07:40:52;7.43;;;2.63;;
14754;SDS011;7469;50.906;6.952;2023-03-24T07:43:23;5.43;;;2.40;;
14754;SDS011;7469;50.906;6.952;2023-03-24T07:45:51;2.57;;;1.83;;
14754;SDS011;7469;50.906;6.952;2023-03-24T07:48:19;3.97;;;1.63;;
14754;SDS011;7469;50.906;6.952;2023-03-24T07:50:47;7.27;;;1.90;;
14754;SDS011;7469;50.906;6.952;2023-03-24T07:53:15;4.50;;;1.70;;
14754;SDS011;7469;50.906;6.952;2023-03-24T07:55:46;5.40;;;1.93;;
14754;SDS011;7469;50.906;6.952;2023-03-24T07:58:15;3.37;;;1.83;;
14754;SDS011;7469;50.906;6.952;2023-03-24T08:00:43;4.23;;;2.20;;
14754;SDS011;7469;50.906;6.952;2023-03-24T08:03:11;7.07;;;1.83;;
14754;SDS011;7469;50.906;6.952;2023-03-24T08:05:41;4.30;;;1.67;;
14754;SDS011;7469;50.906;6.952;2023-03-24T08:08:09;5.00;;;2.10;;
14754;SDS011;7469;50.906;6.952;2023-03-24T08:10:37;6.33;;;2.33;;
14754;SDS011;7469;50.906;6.952;2023-03-24T08:13:07;6.83;;;2.57;;
14754;SDS011;7469;50.906;6.952;2023-03-24T08:15:35;5.47;;;2.20;;
14754;SDS011;7469;50.906;6.952;2023-03-24T08:18:03;7.77;;;2.33;;
14754;SDS011;7469;50.906;6.952;2023-03-24T08:20:31;6.17;;;2.33;;
14754;SDS011;7469;50.906;6.952;2023-03-24T08:22:59;8.67;;;2.20;;
14754;SDS011;7469;50.906;6.952;2023-03-24T08:25:29;8.10;;;2.23;;
14754;SDS011;7469;50.906;6.952;2023-03-24T08:27:57;5.03;;;2.20;;
14754;SDS011;7469;50.906;6.952;2023-03-24T08:30:27;4.33;;;2.53;;
14754;SDS011;7469;50.906;6.952;2023-03-24T08:32:56;5.37;;;2.20;;
14754;SDS011;7469;50.906;6.952;2023-03-24T08:35:26;4.90;;;1.93;;
14754;SDS011;7469;50.906;6.952;2023-03-24T08:37:56;4.83;;;1.93;;
14754;SDS011;7469;50.906;6.952;2023-03-24T08:40:27;7.73;;;2.33;;
14754;SDS011;7469;50.906;6.952;2023-03-24T08:42:57;4.47;;;2.10;;
14754;SDS011;7469;50.906;6.952;2023-03-24T08:45:28;10.47;;;2.10;;
14754;SDS011;7469;50.906;6.952;2023-03-24T08:47:58;7.10;;;1.77;;
14754;SDS011;7469;50.906;6.952;2023-03-24T08:50:29;5.40;;;1.77;;
14754;SDS011;7469;50.906;6.952;2023-03-24T08:53:00;8.13;;;2.00;;
14754;SDS011;7469;50.906;6.952;2023-03-24T08:55:29;3.80;;;2.00;;
14754;SDS011;7469;50.906;6.952;2023-03-24T08:57:57;3.63;;;1.80;;
14754;SDS011;7469;50.906;6.952;2023-03-24T09:00:27;3.73;;;1.60;;
14754;SDS011;7469;50.906;6.952;2023-03-24T09:02:55;9.13;;;1.90;;
14754;SDS011;7469;50.906;6.952;2023-03-24T09:05:26;7.93;;;2.00;;
14754;SDS011;7469;50.906;6.952;2023-03-24T09:08:09;7.70;;;1.87;;
14754;SDS011;7469;50.906;6.952;2023-03-24T09:10:38;8.20;;;1.87;;
14754;SDS011;7469;50.906;6.952;2023-03-24T09:13:06;5.27;;;1.80;;
14754;SDS011;7469;50.906;6.952;2023-03-24T09:15:35;3.37;;;1.33;;
14754;SDS011;7469;50.906;6.952;2023-03-24T09:18:04;5.23;;;1.60;;
14754;SDS011;7469;50.906;6.952;2023-03-24T09:20:33;5.87;;;2.00;;
14754;SDS011;7469;50.906;6.952;2023-03-24T09:23:01;7.47;;;1.80;;
14754;SDS011;7469;50.906;6.952;2023-03-24T09:25:29;6.37;;;1.87;;
14754;SDS011;7469;50.906;6.952;2023-03-24T09:27:57;2.83;;;1.23;;
14754;SDS011;7469;50.906;6.952;2023-03-24T09:30:26;5.93;;;1.97;;
14754;SDS011;7469;50.906;6.952;2023-03-24T09:32:57;4.40;;;1.73;;
14754;SDS011;7469;50.906;6.952;2023-03-24T09:35:26;4.27;;;1.47;;
14754;SDS011;7469;50.906;6.952;2023-03-24T09:37:54;5.47;;;1.77;;
14754;SDS011;7469;50.906;6.952;2023-03-24T09:40:23;5.30;;;2.13;;
14754;SDS011;7469;50.906;6.952;2023-03-24T09:42:54;7.27;;;1.87;;
14754;SDS011;7469;50.906;6.952;2023-03-24T09:45:26;8.03;;;2.10;;
14754;SDS011;7469;50.906;6.952;2023-03-24T09:47:58;7.77;;;1.80;;
14754;SDS011;7469;50.906;6.952;2023-03-24T09:50:32;5.60;;;2.03;;
14754;SDS011;7469;50.906;6.952;2023-03-24T09:53:04;5.03;;;1.70;;
14754;SDS011;7469;50.906;6.952;2023-03-24T09:55:36;4.00;;;1.87;;
14754;SDS011;7469;50.906;6.952;2023-03-24T09:58:09;8.13;;;1.73;;
14754;SDS011;7469;50.906;6.952;2023-03-24T10:00:39;4.90;;;1.83;;
14754;SDS011;7469;50.906;6.952;2023-03-24T10:03:15;4.70;;;1.93;;
14754;SDS011;7469;50.906;6.952;2023-03-24T10:05:48;4.10;;;1.67;;
14754;SDS011;7469;50.906;6.952;2023-03-24T10:08:20;6.23;;;2.00;;
14754;SDS011;7469;50.906;6.952;2023-03-24T10:10:58;8.63;;;2.00;;
14754;SDS011;7469;50.906;6.952;2023-03-24T10:13:32;5.93;;;1.70;;
14754;SDS011;7469;50.906;6.952;2023-03-24T10:16:10;7.10;;;1.50;;
14754;SDS011;7469;50.906;6.952;2023-03-24T10:18:48;5.77;;;1.90;;
14754;SDS011;7469;50.906;6.952;2023-03-24T10:21:23;5.13;;;1.63;;
14754;SDS011;7469;50.906;6.952;2023-03-24T10:23:53;5.27;;;1.80;;
14754;SDS011;7469;50.906;6.952;2023-03-24T10:26:31;5.93;;;1.77;;
14754;SDS011;7469;50.906;6.952;2023-03-24T10:29:12;5.60;;;1.50;;
14754;SDS011;7469;50.906;6.952;2023-03-24T10:31:50;5.00;;;2.00;;
14754;SDS011;7469;50.906;6.952;2023-03-24T10:34:22;5.80;;;1.90;;
14754;SDS011;7469;50.906;6.952;2023-03-24T10:36:55;4.33;;;1.73;;
14754;SDS011;7469;50.906;6.952;2023-03-24T10:39:24;6.23;;;1.67;;
14754;SDS011;7469;50.906;6.952;2023-03-24T10:42:11;14.67;;;1.90;;
14754;SDS011;7469;50.906;6.952;2023-03-24T10:44:41;4.07;;;1.50;;
14754;SDS011;7469;50.906;6.952;2023-03-24T10:47:10;4.23;;;1.60;;
14754;SDS011;7469;50.906;6.952;2023-03-24T10:49:52;3.30;;;1.33;;
14754;SDS011;7469;50.906;6.952;2023-03-24T10:52:20;4.17;;;1.83;;
14754;SDS011;7469;50.906;6.952;2023-03-24T10:54:53;4.70;;;1.63;;
14754;SDS011;7469;50.906;6.952;2023-03-24T10:57:23;6.30;;;1.73;;
14754;SDS011;7469;50.906;6.952;2023-03-24T10:59:54;3.43;;;1.40;;
14754;SDS011;7469;50.906;6.952;2023-03-24T11:02:25;5.43;;;1.90;;
14754;SDS011;7469;50.906;6.952;2023-03-24T11:04:59;3.83;;;1.60;;
14754;SDS011;7469;50.906;6.952;2023-03-24T11:07:40;4.43;;;1.40;;
14754;SDS011;7469;50.906;6.952;2023-03-24T11:10:12;6.70;;;1.60;;
14754;SDS011;7469;50.906;6.952;2023-03-24T11:12:57;5.20;;;1.60;;
14754;SDS011;7469;50.906;6.952;2023-03-24T11:15:28;6.73;;;1.80;;
14754;SDS011;7469;50.906;6.952;2023-03-24T11:17:58;3.67;;;1.60;;
14754;SDS011;7469;50.906;6.952;2023-03-24T11:20:30;4.93;;;1.33;;
14754;SDS011;7469;50.906;6.952;2023-03-24T11:23:01;3.60;;;1.60;;
14754;SDS011;7469;50.906;6.952;2023-03-24T11:25:31;5.40;;;1.20;;
14754;SDS011;7469;50.906;6.952;2023-03-24T11:28:02;6.30;;;1.73;;
14754;SDS011;7469;50.906;6.952;2023-03-24T11:30:36;4.53;;;1.50;;
14754;SDS011;7469;50.906;6.952;2023-03-24T11:33:14;4.13;;;1.43;;
14754;SDS011;7469;50.906;6.952;2023-03-24T11:36:03;4.40;;;1.37;;
14754;SDS011;7469;50.906;6.952;2023-03-24T11:38:38;3.70;;;1.30;;
14754;SDS011;7469;50.906;6.952;2023-03-24T11:41:08;5.30;;;1.37;;
14754;SDS011;7469;50.906;6.952;2023-03-24T11:43:47;3.10;;;1.10;;
14754;SDS011;7469;50.906;6.952;2023-03-24T11:46:16;4.40;;;1.00;;
14754;SDS011;7469;50.906;6.952;2023-03-24T11:48:47;2.13;;;1.00;;
14754;SDS011;7469;50.906;6.952;2023-03-24T11:51:22;3.10;;;1.33;;
14754;SDS011;7469;50.906;6.952;2023-03-24T11:53:54;6.13;;;1.33;;
14754;SDS011;7469;50.906;6.952;2023-03-24T11:56:24;2.40;;;1.07;;
14754;SDS011;7469;50.906;6.952;2023-03-24T11:59:00;6.23;;;1.60;;
14754;SDS011;7469;50.906;6.952;2023-03-24T12:01:35;5.87;;;1.70;;
14754;SDS011;7469;50.906;6.952;2023-03-24T12:04:06;4.33;;;1.20;;
14754;SDS011;7469;50.906;6.952;2023-03-24T12:06:55;4.93;;;1.30;;
14754;SDS011;7469;50.906;6.952;2023-03-24T12:09:50;3.63;;;1.30;;
14754;SDS011;7469;50.906;6.952;2023-03-24T12:12:26;2.27;;;1.23;;
14754;SDS011;7469;50.906;6.952;2023-03-24T12:15:19;3.03;;;1.03;;
14754;SDS011;7469;50.906;6.952;2023-03-24T12:17:58;4.10;;;1.30;;
14754;SDS011;7469;50.906;6.952;2023-03-24T12:20:42;2.57;;;1.03;;
14754;SDS011;7469;50.906;6.952;2023-03-24T12:23:17;3.40;;;1.10;;
14754;SDS011;7469;50.906;6.952;2023-03-24T12:25:59;5.57;;;1.50;;
14754;SDS011;7469;50.906;6.952;2023-03-24T12:28:49;6.40;;;1.60;;
14754;SDS011;7469;50.906;6.952;2023-03-24T12:31:36;5.80;;;1.50;;
14754;SDS011;7469;50.906;6.952;2023-03-24T12:34:21;3.40;;;1.30;;
14754;SDS011;7469;50.906;6.952;2023-03-24T12:37:08;5.87;;;1.60;;
14754;SDS011;7469;50.906;6.952;2023-03-24T12:39:45;4.40;;;1.30;;
14754;SDS011;7469;50.906;6.952;2023-03-24T12:42:23;4.67;;;1.40;;
14754;SDS011;7469;50.906;6.952;2023-03-24T12:44:57;6.17;;;1.40;;
14754;SDS011;7469;50.906;6.952;2023-03-24T12:47:57;3.60;;;1.20;;
14754;SDS011;7469;50.906;6.952;2023-03-24T12:50:44;3.00;;;1.33;;
14754;SDS011;7469;50.906;6.952;2023-03-24T12:53:32;3.30;;;1.30;;
14754;SDS011;7469;50.906;6.952;2023-03-24T12:56:12;1.87;;;1.33;;
14754;SDS011;7469;50.906;6.952;2023-03-24T12:58:45;4.57;;;1.37;;
14754;SDS011;7469;50.906;6.952;2023-03-24T13:01:18;2.53;;;0.97;;
14754;SDS011;7469;50.906;6.952;2023-03-24T13:03:56;3.53;;;1.23;;
14754;SDS011;7469;50.906;6.952;2023-03-24T13:06:26;3.80;;;1.20;;
14754;SDS011;7469;50.906;6.952;2023-03-24T13:09:02;3.27;;;1.30;;
14754;SDS011;7469;50.906;6.952;2023-03-24T13:11:42;3.33;;;1.03;;
14754;SDS011;7469;50.906;6.952;2023-03-24T13:14:19;4.50;;;1.20;;
14754;SDS011;7469;50.906;6.952;2023-03-24T13:16:51;4.77;;;0.90;;
14754;SDS011;7469;50.906;6.952;2023-03-24T13:19:26;4.67;;;1.13;;
14754;SDS011;7469;50.906;6.952;2023-03-24T13:21:55;3.80;;;0.87;;
14754;SDS011;7469;50.906;6.952;2023-03-24T13:24:24;3.07;;;1.20;;
14754;SDS011;7469;50.906;6.952;2023-03-24T13:26:56;3.93;;;1.03;;
14754;SDS011;7469;50.906;6.952;2023-03-24T13:29:43;4.73;;;1.27;;
14754;SDS011;7469;50.906;6.952;2023-03-24T13:32:24;2.43;;;1.13;;
14754;SDS011;7469;50.906;6.952;2023-03-24T13:34:58;2.47;;;0.90;;
14754;SDS011;7469;50.906;6.952;2023-03-24T13:37:32;3.53;;;1.13;;
14754;SDS011;7469;50.906;6.952;2023-03-24T13:40:04;1.50;;;0.97;;
14754;SDS011;7469;50.906;6.952;2023-03-24T13:42:42;3.37;;;1.00;;
14754;SDS011;7469;50.906;6.952;2023-03-24T13:45:20;6.23;;;1.53;;
14754;SDS011;7469;50.906;6.952;2023-03-24T13:48:02;4.23;;;1.00;;
14754;SDS011;7469;50.906;6.952;2023-03-24T13:50:33;2.83;;;1.10;;
14754;SDS011;7469;50.906;6.952;2023-03-24T13:53:05;7.03;;;1.27;;
14754;SDS011;7469;50.906;6.952;2023-03-24T13:55:39;2.40;;;1.00;;
14754;SDS011;7469;50.906;6.952;2023-03-24T13:58:17;5.47;;;1.30;;
14754;SDS011;7469;50.906;6.952;2023-03-24T14:04:14;2.80;;;0.90;;
14754;SDS011;7469;50.906;6.952;2023-03-24T14:06:47;2.77;;;0.97;;
14754;SDS011;7469;50.906;6.952;2023-03-24T14:09:18;2.07;;;0.80;;
14754;SDS011;7469;50.906;6.952;2023-03-24T14:11:48;2.60;;;0.80;;
14754;SDS011;7469;50.906;6.952;2023-03-24T14:17:43;1.63;;;0.63;;
14754;SDS011;7469;50.906;6.952;2023-03-24T14:20:22;1.90;;;0.80;;
14754;SDS011;7469;50.906;6.952;2023-03-24T14:22:53;3.83;;;1.27;;
14754;SDS011;7469;50.906;6.952;2023-03-24T14:25:25;2.87;;;1.10;;
14754;SDS011;7469;50.906;6.952;2023-03-24T14:28:05;1.40;;;0.93;;
14754;SDS011;7469;50.906;6.952;2023-03-24T14:30:57;5.17;;;1.10;;
14754;SDS011;7469;50.906;6.952;2023-03-24T14:33:29;1.93;;;1.13;;
14754;SDS011;7469;50.906;6.952;2023-03-24T14:36:00;4.30;;;0.83;;
14754;SDS011;7469;50.906;6.952;2023-03-24T14:38:33;3.53;;;1.17;;
14754;SDS011;7469;50.906;6.952;2023-03-24T14:41:07;1.93;;;0.90;;
14754;SDS011;7469;50.906;6.952;2023-03-24T14:43:52;3.50;;;1.33;;
14754;SDS011;7469;50.906;6.952;2023-03-24T14:46:33;3.73;;;1.00;;
14754;SDS011;7469;50.906;6.952;2023-03-24T14:49:12;3.73;;;1.20;;
14754;SDS011;7469;50.906;6.952;2023-03-24T14:51:51;2.83;;;1.20;;
14754;SDS011;7469;50.906;6.952;2023-03-24T14:54:26;3.97;;;1.07;;
14754;SDS011;7469;50.906;6.952;2023-03-24T14:56:59;2.03;;;1.00;;
14754;SDS011;7469;50.906;6.952;2023-03-24T14:59:30;2.13;;;1.17;;
14754;SDS011;7469;50.906;6.952;2023-03-24T15:02:04;3.90;;;0.97;;
14754;SDS011;7469;50.906;6.952;2023-03-24T15:07:59;2.87;;;0.97;;
14754;SDS011;7469;50.906;6.952;2023-03-24T15:10:32;2.20;;;0.90;;
14754;SDS011;7469;50.906;6.952;2023-03-24T15:13:04;3.83;;;0.80;;
14754;SDS011;7469;50.906;6.952;2023-03-24T15:15:32;1.10;;;1.00;;
14754;SDS011;7469;50.906;6.952;2023-03-24T15:18:00;5.97;;;0.83;;
14754;SDS011;7469;50.906;6.952;2023-03-24T15:20:31;3.53;;;1.00;;
14754;SDS011;7469;50.906;6.952;2023-03-24T15:23:03;2.00;;;0.90;;
14754;SDS011;7469;50.906;6.952;2023-03-24T15:25:32;2.37;;;1.03;;
14754;SDS011;7469;50.906;6.952;2023-03-24T15:28:00;2.47;;;1.00;;
14754;SDS011;7469;50.906;6.952;2023-03-24T15:30:28;3.50;;;1.00;;
14754;SDS011;7469;50.906;6.952;2023-03-24T15:32:56;3.47;;;1.00;;
14754;SDS011;7469;50.906;6.952;2023-03-24T15:35:26;2.30;;;1.10;;
14754;SDS011;7469;50.906;6.952;2023-03-24T15:37:55;1.30;;;0.90;;
14754;SDS011;7469;50.906;6.952;2023-03-24T15:40:30;2.87;;;1.00;;
14754;SDS011;7469;50.906;6.952;2023-03-24T15:43:04;5.40;;;1.20;;
14754;SDS011;7469;50.906;6.952;2023-03-24T15:45:33;1.63;;;0.90;;
14754;SDS011;7469;50.906;6.952;2023-03-24T15:48:04;2.20;;;1.20;;
14754;SDS011;7469;50.906;6.952;2023-03-24T15:50:35;3.80;;;1.20;;
14754;SDS011;7469;50.906;6.952;2023-03-24T15:53:20;2.63;;;0.87;;